sensor_id;sensor_type;location;lat;lon;timestamp;pressure;altitude;pressure_sealevel;temperature;humidity
77041;BME280;65974;42.664;23.264;2023-08-20T00:03:40;94640.75;;;20.55;61.64
77041;BME280;65974;42.664;23.264;2023-08-20T00:06:06;94638.69;;;20.59;61.40
77041;BME280;65974;42.664;23.264;2023-08-20T00:08:31;94631.88;;;20.67;61.37
77041;BME280;65974;42.664;23.264;2023-08-20T00:10:57;94641.81;;;20.70;60.73
77041;BME280;65974;42.664;23.264;2023-08-20T00:13:22;94641.81;;;20.70;60.97
77041;BME280;65974;42.664;23.264;2023-08-20T00:15:48;94634.56;;;20.80;60.06
77041;BME280;65974;42.664;23.264;2023-08-20T00:18:14;94632.59;;;20.80;59.87
77041;BME280;65974;42.664;23.264;2023-08-20T00:20:40;94641.38;;;20.84;60.10
77041;BME280;65974;42.664;23.264;2023-08-20T00:23:07;94633.88;;;20.88;59.90
77041;BME280;65974;42.664;23.264;2023-08-20T00:25:32;94641.69;;;20.86;59.80
77041;BME280;65974;42.664;23.264;2023-08-20T00:27:58;94640.38;;;20.91;60.31
77041;BME280;65974;42.664;23.264;2023-08-20T00:30:23;94638.09;;;20.89;60.12
77041;BME280;65974;42.664;23.264;2023-08-20T00:32:49;94638.34;;;20.82;60.68
77041;BME280;65974;42.664;23.264;2023-08-20T00:35:15;94638.56;;;20.75;60.52
77041;BME280;65974;42.664;23.264;2023-08-20T00:37:41;94634.59;;;20.67;61.02
77041;BME280;65974;42.664;23.264;2023-08-20T00:40:07;94631.25;;;20.51;61.62
77041;BME280;65974;42.664;23.264;2023-08-20T00:42:34;94630.41;;;20.41;61.92
77041;BME280;65974;42.664;23.264;2023-08-20T00:45:00;94646.22;;;20.30;62.16
77041;BME280;65974;42.664;23.264;2023-08-20T00:47:27;94640.47;;;20.16;62.68
77041;BME280;65974;42.664;23.264;2023-08-20T00:49:53;94641.75;;;20.11;63.04
77041;BME280;65974;42.664;23.264;2023-08-20T00:52:19;94640.03;;;20.04;62.86
77041;BME280;65974;42.664;23.264;2023-08-20T00:54:47;94636.88;;;20.06;63.09
77041;BME280;65974;42.664;23.264;2023-08-20T00:57:14;94637.00;;;20.02;63.18
77041;BME280;65974;42.664;23.264;2023-08-20T00:59:40;94639.59;;;19.93;63.54
77041;BME280;65974;42.664;23.264;2023-08-20T01:02:07;94638.84;;;19.93;64.02
77041;BME280;65974;42.664;23.264;2023-08-20T01:04:32;94629.31;;;19.88;64.24
77041;BME280;65974;42.664;23.264;2023-08-20T01:07:24;94630.19;;;19.85;64.03
77041;BME280;65974;42.664;23.264;2023-08-20T01:12:51;94629.84;;;19.71;64.75
77041;BME280;65974;42.664;23.264;2023-08-20T01:15:17;94631.91;;;19.67;65.04
77041;BME280;65974;42.664;23.264;2023-08-20T01:17:43;94645.91;;;19.62;65.25
77041;BME280;65974;42.664;23.264;2023-08-20T01:20:11;94643.00;;;19.56;65.31
77041;BME280;65974;42.664;23.264;2023-08-20T01:28:30;94637.72;;;19.53;65.51
77041;BME280;65974;42.664;23.264;2023-08-20T01:30:58;94631.09;;;19.54;65.17
77041;BME280;65974;42.664;23.264;2023-08-20T01:33:24;94634.47;;;19.58;65.27
77041;BME280;65974;42.664;23.264;2023-08-20T01:35:53;94628.72;;;19.56;65.01
77041;BME280;65974;42.664;23.264;2023-08-20T01:38:19;94623.66;;;19.58;65.19
77041;BME280;65974;42.664;23.264;2023-08-20T01:40:45;94620.00;;;19.64;65.12
77041;BME280;65974;42.664;23.264;2023-08-20T01:43:10;94613.63;;;19.71;64.90
77041;BME280;65974;42.664;23.264;2023-08-20T01:45:36;94620.13;;;19.73;65.05
77041;BME280;65974;42.664;23.264;2023-08-20T01:48:02;94622.16;;;19.69;65.11
77041;BME280;65974;42.664;23.264;2023-08-20T01:50:29;94623.47;;;19.65;65.37
77041;BME280;65974;42.664;23.264;2023-08-20T01:52:54;94624.88;;;19.69;65.45
77041;BME280;65974;42.664;23.264;2023-08-20T01:55:19;94619.25;;;19.76;65.37
77041;BME280;65974;42.664;23.264;2023-08-20T01:57:45;94619.28;;;19.89;64.98
77041;BME280;65974;42.664;23.264;2023-08-20T02:00:11;94615.56;;;19.95;64.58
77041;BME280;65974;42.664;23.264;2023-08-20T02:02:38;94604.56;;;20.02;63.71
77041;BME280;65974;42.664;23.264;2023-08-20T02:05:04;94615.69;;;20.04;63.71
77041;BME280;65974;42.664;23.264;2023-08-20T02:07:29;94607.56;;;20.04;63.97
77041;BME280;65974;42.664;23.264;2023-08-20T02:09:54;94610.91;;;20.08;63.28
77041;BME280;65974;42.664;23.264;2023-08-20T02:12:20;94598.16;;;20.09;62.97
77041;BME280;65974;42.664;23.264;2023-08-20T02:14:45;94601.31;;;20.07;63.25
77041;BME280;65974;42.664;23.264;2023-08-20T02:17:11;94597.41;;;20.08;63.67
77041;BME280;65974;42.664;23.264;2023-08-20T02:19:37;94602.06;;;20.08;63.50
77041;BME280;65974;42.664;23.264;2023-08-20T02:22:03;94604.44;;;20.06;63.13
77041;BME280;65974;42.664;23.264;2023-08-20T02:24:30;94603.78;;;20.02;63.39
77041;BME280;65974;42.664;23.264;2023-08-20T02:26:56;94608.13;;;19.99;64.09
77041;BME280;65974;42.664;23.264;2023-08-20T02:29:23;94616.97;;;20.00;63.41
77041;BME280;65974;42.664;23.264;2023-08-20T02:31:48;94609.50;;;20.04;63.68
77041;BME280;65974;42.664;23.264;2023-08-20T02:34:13;94616.91;;;20.03;63.70
77041;BME280;65974;42.664;23.264;2023-08-20T02:36:39;94605.19;;;20.06;63.41
77041;BME280;65974;42.664;23.264;2023-08-20T02:39:05;94606.16;;;20.12;62.64
77041;BME280;65974;42.664;23.264;2023-08-20T02:41:33;94612.66;;;20.15;62.54
77041;BME280;65974;42.664;23.264;2023-08-20T02:43:59;94602.59;;;20.16;62.35
77041;BME280;65974;42.664;23.264;2023-08-20T02:46:25;94608.25;;;20.21;61.75
77041;BME280;65974;42.664;23.264;2023-08-20T02:48:50;94618.19;;;20.24;61.77
77041;BME280;65974;42.664;23.264;2023-08-20T02:51:16;94624.47;;;20.21;62.44
77041;BME280;65974;42.664;23.264;2023-08-20T02:53:41;94619.47;;;20.20;62.43
77041;BME280;65974;42.664;23.264;2023-08-20T02:56:07;94622.06;;;20.10;62.85
77041;BME280;65974;42.664;23.264;2023-08-20T02:58:32;94627.06;;;20.12;63.31
77041;BME280;65974;42.664;23.264;2023-08-20T03:00:58;94625.84;;;20.13;62.67
77041;BME280;65974;42.664;23.264;2023-08-20T03:03:23;94632.16;;;20.10;62.56
77041;BME280;65974;42.664;23.264;2023-08-20T03:05:49;94629.97;;;20.05;62.49
77041;BME280;65974;42.664;23.264;2023-08-20T03:08:15;94622.72;;;20.02;62.51
77041;BME280;65974;42.664;23.264;2023-08-20T03:10:41;94631.28;;;20.00;62.84
77041;BME280;65974;42.664;23.264;2023-08-20T03:13:06;94638.63;;;20.00;62.71
77041;BME280;65974;42.664;23.264;2023-08-20T03:15:32;94624.03;;;19.97;62.72
77041;BME280;65974;42.664;23.264;2023-08-20T03:17:57;94621.41;;;19.94;63.14
77041;BME280;65974;42.664;23.264;2023-08-20T03:20:23;94620.97;;;19.95;62.85
77041;BME280;65974;42.664;23.264;2023-08-20T03:22:48;94627.16;;;19.96;62.63
77041;BME280;65974;42.664;23.264;2023-08-20T03:25:14;94620.66;;;19.93;62.60
77041;BME280;65974;42.664;23.264;2023-08-20T03:27:41;94624.13;;;19.94;62.65
77041;BME280;65974;42.664;23.264;2023-08-20T03:30:07;94623.59;;;19.86;63.59
77041;BME280;65974;42.664;23.264;2023-08-20T03:32:32;94619.03;;;19.83;64.45
77041;BME280;65974;42.664;23.264;2023-08-20T03:34:58;94625.41;;;19.77;64.65
77041;BME280;65974;42.664;23.264;2023-08-20T03:37:25;94620.22;;;19.70;64.81
77041;BME280;65974;42.664;23.264;2023-08-20T03:39:51;94615.03;;;19.63;65.05
77041;BME280;65974;42.664;23.264;2023-08-20T03:42:17;94615.53;;;19.58;65.06
77041;BME280;65974;42.664;23.264;2023-08-20T03:44:42;94618.38;;;19.54;65.14
77041;BME280;65974;42.664;23.264;2023-08-20T03:47:08;94617.72;;;19.50;65.34
77041;BME280;65974;42.664;23.264;2023-08-20T03:49:33;94613.94;;;19.60;65.55
77041;BME280;65974;42.664;23.264;2023-08-20T03:51:59;94621.09;;;19.67;65.08
77041;BME280;65974;42.664;23.264;2023-08-20T03:54:27;94609.50;;;19.66;64.92
77041;BME280;65974;42.664;23.264;2023-08-20T03:56:53;94612.97;;;19.67;64.95
77041;BME280;65974;42.664;23.264;2023-08-20T03:59:19;94614.25;;;19.62;65.54
77041;BME280;65974;42.664;23.264;2023-08-20T04:01:44;94614.25;;;19.62;65.75
77041;BME280;65974;42.664;23.264;2023-08-20T04:04:09;94610.59;;;19.69;65.61
77041;BME280;65974;42.664;23.264;2023-08-20T04:06:35;94598.25;;;19.68;65.57
77041;BME280;65974;42.664;23.264;2023-08-20T04:09:00;94609.41;;;19.70;65.63
77041;BME280;65974;42.664;23.264;2023-08-20T04:11:26;94609.06;;;19.68;65.71
77041;BME280;65974;42.664;23.264;2023-08-20T04:13:51;94607.91;;;19.69;65.96
77041;BME280;65974;42.664;23.264;2023-08-20T04:16:16;94613.41;;;19.65;66.25
77041;BME280;65974;42.664;23.264;2023-08-20T04:18:42;94603.78;;;19.64;65.73
77041;BME280;65974;42.664;23.264;2023-08-20T04:21:07;94608.97;;;19.59;66.16
77041;BME280;65974;42.664;23.264;2023-08-20T04:23:33;94606.34;;;19.55;66.30
77041;BME280;65974;42.664;23.264;2023-08-20T04:25:58;94615.63;;;19.42;66.87
77041;BME280;65974;42.664;23.264;2023-08-20T04:28:24;94608.81;;;19.37;66.93
77041;BME280;65974;42.664;23.264;2023-08-20T04:30:52;94615.84;;;19.34;67.38
77041;BME280;65974;42.664;23.264;2023-08-20T04:33:19;94610.50;;;19.31;67.43
77041;BME280;65974;42.664;23.264;2023-08-20T04:35:44;94615.06;;;19.34;67.94
77041;BME280;65974;42.664;23.264;2023-08-20T04:38:10;94615.91;;;19.31;67.71
77041;BME280;65974;42.664;23.264;2023-08-20T04:40:35;94616.00;;;19.27;67.66
77041;BME280;65974;42.664;23.264;2023-08-20T04:43:01;94628.66;;;19.30;68.07
77041;BME280;65974;42.664;23.264;2023-08-20T04:45:26;94624.25;;;19.37;67.70
77041;BME280;65974;42.664;23.264;2023-08-20T04:47:51;94628.72;;;19.43;67.39
77041;BME280;65974;42.664;23.264;2023-08-20T04:50:17;94627.31;;;19.51;66.89
77041;BME280;65974;42.664;23.264;2023-08-20T04:52:42;94615.03;;;19.63;66.57
77041;BME280;65974;42.664;23.264;2023-08-20T04:55:08;94615.56;;;19.70;65.62
77041;BME280;65974;42.664;23.264;2023-08-20T04:57:34;94620.00;;;19.77;65.29
77041;BME280;65974;42.664;23.264;2023-08-20T04:59:59;94618.28;;;19.83;64.83
77041;BME280;65974;42.664;23.264;2023-08-20T05:02:25;94624.13;;;19.94;65.07
77041;BME280;65974;42.664;23.264;2023-08-20T05:04:51;94621.97;;;20.01;64.16
77041;BME280;65974;42.664;23.264;2023-08-20T05:07:16;94616.66;;;20.10;64.01
77041;BME280;65974;42.664;23.264;2023-08-20T05:09:42;94629.88;;;20.21;64.48
77041;BME280;65974;42.664;23.264;2023-08-20T05:12:08;94616.13;;;20.28;63.68
77041;BME280;65974;42.664;23.264;2023-08-20T05:14:34;94623.59;;;20.37;63.44
77041;BME280;65974;42.664;23.264;2023-08-20T05:16:59;94616.44;;;20.43;63.02
77041;BME280;65974;42.664;23.264;2023-08-20T05:19:25;94625.50;;;20.49;63.39
77041;BME280;65974;42.664;23.264;2023-08-20T05:21:50;94635.13;;;20.62;63.26
77041;BME280;65974;42.664;23.264;2023-08-20T05:24:17;94632.06;;;20.73;62.38
77041;BME280;65974;42.664;23.264;2023-08-20T05:26:42;94634.88;;;20.82;61.86
77041;BME280;65974;42.664;23.264;2023-08-20T05:29:07;94633.44;;;20.90;61.41
77041;BME280;65974;42.664;23.264;2023-08-20T05:31:33;94632.75;;;20.99;60.84
77041;BME280;65974;42.664;23.264;2023-08-20T05:33:59;94641.75;;;21.08;61.22
77041;BME280;65974;42.664;23.264;2023-08-20T05:36:24;94639.69;;;21.12;61.15
77041;BME280;65974;42.664;23.264;2023-08-20T05:38:49;94639.00;;;21.21;60.65
77041;BME280;65974;42.664;23.264;2023-08-20T05:41:15;94636.22;;;21.33;60.96
77041;BME280;65974;42.664;23.264;2023-08-20T05:43:40;94641.13;;;21.47;60.99
77041;BME280;65974;42.664;23.264;2023-08-20T05:46:06;94643.13;;;21.56;60.85
77041;BME280;65974;42.664;23.264;2023-08-20T05:48:32;94642.00;;;21.66;59.74
77041;BME280;65974;42.664;23.264;2023-08-20T05:50:57;94642.03;;;21.75;60.07
77041;BME280;65974;42.664;23.264;2023-08-20T05:53:23;94647.09;;;21.86;58.81
77041;BME280;65974;42.664;23.264;2023-08-20T05:55:48;94646.41;;;21.94;59.46
77041;BME280;65974;42.664;23.264;2023-08-20T05:58:14;94638.63;;;22.05;59.50
77041;BME280;65974;42.664;23.264;2023-08-20T06:00:39;94640.91;;;22.16;59.43
77041;BME280;65974;42.664;23.264;2023-08-20T06:03:05;94646.97;;;22.20;58.76
77041;BME280;65974;42.664;23.264;2023-08-20T06:05:33;94636.31;;;22.34;59.28
77041;BME280;65974;42.664;23.264;2023-08-20T06:07:58;94641.91;;;22.40;59.04
77041;BME280;65974;42.664;23.264;2023-08-20T06:10:24;94624.91;;;22.49;58.57
77041;BME280;65974;42.664;23.264;2023-08-20T06:12:50;94641.94;;;22.58;57.88
77041;BME280;65974;42.664;23.264;2023-08-20T06:15:15;94640.78;;;22.68;58.43
77041;BME280;65974;42.664;23.264;2023-08-20T06:17:41;94647.63;;;22.82;58.07
77041;BME280;65974;42.664;23.264;2023-08-20T06:20:06;94638.41;;;22.88;57.22
77041;BME280;65974;42.664;23.264;2023-08-20T06:22:33;94642.66;;;22.98;57.83
77041;BME280;65974;42.664;23.264;2023-08-20T06:24:59;94648.84;;;23.08;57.77
77041;BME280;65974;42.664;23.264;2023-08-20T06:27:24;94646.59;;;23.15;57.22
77041;BME280;65974;42.664;23.264;2023-08-20T06:29:50;94651.72;;;23.32;56.95
77041;BME280;65974;42.664;23.264;2023-08-20T06:32:15;94648.41;;;23.46;55.90
77041;BME280;65974;42.664;23.264;2023-08-20T06:34:41;94644.94;;;23.54;56.14
77041;BME280;65974;42.664;23.264;2023-08-20T06:37:07;94640.69;;;23.62;56.20
77041;BME280;65974;42.664;23.264;2023-08-20T06:39:32;94644.59;;;23.70;54.13
77041;BME280;65974;42.664;23.264;2023-08-20T06:41:57;94642.63;;;23.80;54.88
77041;BME280;65974;42.664;23.264;2023-08-20T06:44:23;94644.25;;;23.86;54.69
77041;BME280;65974;42.664;23.264;2023-08-20T06:46:48;94640.63;;;23.89;54.90
77041;BME280;65974;42.664;23.264;2023-08-20T06:49:14;94639.09;;;23.98;53.88
77041;BME280;65974;42.664;23.264;2023-08-20T06:51:39;94643.78;;;24.06;54.62
77041;BME280;65974;42.664;23.264;2023-08-20T06:54:05;94650.41;;;24.14;54.57
77041;BME280;65974;42.664;23.264;2023-08-20T06:56:33;94641.00;;;24.15;53.24
77041;BME280;65974;42.664;23.264;2023-08-20T06:59:00;94648.09;;;24.22;53.58
77041;BME280;65974;42.664;23.264;2023-08-20T07:01:25;94635.34;;;24.37;53.75
77041;BME280;65974;42.664;23.264;2023-08-20T07:03:51;94639.97;;;24.45;53.71
77041;BME280;65974;42.664;23.264;2023-08-20T07:06:16;94639.31;;;24.59;52.72
77041;BME280;65974;42.664;23.264;2023-08-20T07:08:43;94637.25;;;24.78;51.05
77041;BME280;65974;42.664;23.264;2023-08-20T07:11:09;94640.97;;;24.90;49.75
77041;BME280;65974;42.664;23.264;2023-08-20T07:13:35;94636.22;;;24.99;49.87
77041;BME280;65974;42.664;23.264;2023-08-20T07:16:01;94641.88;;;25.10;49.59
77041;BME280;65974;42.664;23.264;2023-08-20T07:18:26;94645.41;;;25.25;48.93
77041;BME280;65974;42.664;23.264;2023-08-20T07:20:52;94639.84;;;25.34;48.40
77041;BME280;65974;42.664;23.264;2023-08-20T07:23:19;94639.81;;;25.44;48.10
77041;BME280;65974;42.664;23.264;2023-08-20T07:25:45;94643.97;;;25.54;47.88
77041;BME280;65974;42.664;23.264;2023-08-20T07:28:12;94641.81;;;25.58;48.76
77041;BME280;65974;42.664;23.264;2023-08-20T07:30:37;94643.31;;;25.73;46.90
77041;BME280;65974;42.664;23.264;2023-08-20T07:33:04;94643.44;;;25.79;45.51
77041;BME280;65974;42.664;23.264;2023-08-20T07:35:29;94635.34;;;25.84;46.96
77041;BME280;65974;42.664;23.264;2023-08-20T07:37:55;94639.66;;;25.91;46.46
77041;BME280;65974;42.664;23.264;2023-08-20T07:40:20;94641.06;;;26.01;46.05
77041;BME280;65974;42.664;23.264;2023-08-20T07:42:46;94645.72;;;26.09;45.95
77041;BME280;65974;42.664;23.264;2023-08-20T07:45:13;94651.81;;;26.19;45.48
77041;BME280;65974;42.664;23.264;2023-08-20T07:47:39;94646.91;;;26.23;45.75
77041;BME280;65974;42.664;23.264;2023-08-20T07:50:05;94647.19;;;26.25;45.76
77041;BME280;65974;42.664;23.264;2023-08-20T07:52:32;94645.31;;;26.31;45.02
77041;BME280;65974;42.664;23.264;2023-08-20T07:54:58;94651.16;;;26.24;45.64
77041;BME280;65974;42.664;23.264;2023-08-20T07:57:23;94650.69;;;26.26;45.43
77041;BME280;65974;42.664;23.264;2023-08-20T07:59:52;94646.16;;;26.23;45.51
77041;BME280;65974;42.664;23.264;2023-08-20T08:02:18;94650.88;;;26.22;45.96
77041;BME280;65974;42.664;23.264;2023-08-20T08:04:43;94655.94;;;26.29;45.50
77041;BME280;65974;42.664;23.264;2023-08-20T08:07:09;94648.88;;;26.37;45.66
77041;BME280;65974;42.664;23.264;2023-08-20T08:09:35;94656.19;;;26.46;44.52
77041;BME280;65974;42.664;23.264;2023-08-20T08:12:02;94653.84;;;26.53;45.08
77041;BME280;65974;42.664;23.264;2023-08-20T08:14:27;94645.38;;;26.51;44.19
77041;BME280;65974;42.664;23.264;2023-08-20T08:16:53;94657.41;;;26.59;43.56
77041;BME280;65974;42.664;23.264;2023-08-20T08:19:20;94642.97;;;26.73;42.63
77041;BME280;65974;42.664;23.264;2023-08-20T08:21:46;94659.34;;;26.73;42.45
77041;BME280;65974;42.664;23.264;2023-08-20T08:24:12;94648.41;;;26.73;41.85
77041;BME280;65974;42.664;23.264;2023-08-20T08:26:38;94655.19;;;26.78;41.71
77041;BME280;65974;42.664;23.264;2023-08-20T08:29:05;94646.25;;;26.77;41.19
77041;BME280;65974;42.664;23.264;2023-08-20T08:31:30;94651.03;;;26.82;41.39
77041;BME280;65974;42.664;23.264;2023-08-20T08:33:56;94651.53;;;26.81;41.44
77041;BME280;65974;42.664;23.264;2023-08-20T08:36:21;94653.09;;;26.87;42.11
77041;BME280;65974;42.664;23.264;2023-08-20T08:38:50;94647.22;;;26.95;40.67
77041;BME280;65974;42.664;23.264;2023-08-20T08:41:16;94646.53;;;27.00;40.80
77041;BME280;65974;42.664;23.264;2023-08-20T08:43:41;94644.19;;;26.92;41.04
77041;BME280;65974;42.664;23.264;2023-08-20T08:46:12;94646.00;;;26.96;39.94
77041;BME280;65974;42.664;23.264;2023-08-20T08:48:39;94651.31;;;27.05;40.23
77041;BME280;65974;42.664;23.264;2023-08-20T08:51:05;94647.63;;;27.08;40.31
77041;BME280;65974;42.664;23.264;2023-08-20T08:53:32;94647.22;;;27.15;40.04
77041;BME280;65974;42.664;23.264;2023-08-20T08:55:59;94650.22;;;27.17;39.61
77041;BME280;65974;42.664;23.264;2023-08-20T08:58:25;94657.00;;;27.21;38.47
77041;BME280;65974;42.664;23.264;2023-08-20T09:00:50;94650.41;;;27.33;37.74
77041;BME280;65974;42.664;23.264;2023-08-20T09:03:16;94654.22;;;27.36;37.38
77041;BME280;65974;42.664;23.264;2023-08-20T09:06:00;94655.56;;;27.26;37.60
77041;BME280;65974;42.664;23.264;2023-08-20T09:08:30;94650.91;;;27.32;36.22
77041;BME280;65974;42.664;23.264;2023-08-20T09:11:00;94646.28;;;27.38;37.04
77041;BME280;65974;42.664;23.264;2023-08-20T09:15:59;94645.28;;;27.41;36.12
77041;BME280;65974;42.664;23.264;2023-08-20T09:18:28;94649.78;;;27.38;36.02
77041;BME280;65974;42.664;23.264;2023-08-20T09:20:54;94645.50;;;27.37;36.32
77041;BME280;65974;42.664;23.264;2023-08-20T09:23:19;94642.03;;;27.37;36.12
77041;BME280;65974;42.664;23.264;2023-08-20T09:25:45;94651.75;;;27.38;36.69
77041;BME280;65974;42.664;23.264;2023-08-20T09:28:11;94648.59;;;27.45;36.32
77041;BME280;65974;42.664;23.264;2023-08-20T09:30:38;94647.63;;;27.48;37.21
77041;BME280;65974;42.664;23.264;2023-08-20T09:33:10;94637.75;;;27.56;36.87
77041;BME280;65974;42.664;23.264;2023-08-20T09:35:36;94636.56;;;27.62;36.25
77041;BME280;65974;42.664;23.264;2023-08-20T09:38:03;94637.88;;;27.67;36.43
77041;BME280;65974;42.664;23.264;2023-08-20T09:40:29;94640.13;;;27.68;37.58
77041;BME280;65974;42.664;23.264;2023-08-20T09:42:56;94638.88;;;27.70;36.26
77041;BME280;65974;42.664;23.264;2023-08-20T09:45:24;94635.66;;;27.71;36.21
77041;BME280;65974;42.664;23.264;2023-08-20T09:47:54;94632.88;;;27.65;36.40
77041;BME280;65974;42.664;23.264;2023-08-20T09:50:21;94632.78;;;27.80;36.34
77041;BME280;65974;42.664;23.264;2023-08-20T09:53:27;94629.91;;;27.95;35.57
77041;BME280;65974;42.664;23.264;2023-08-20T09:55:56;94627.31;;;28.06;36.19
77041;BME280;65974;42.664;23.264;2023-08-20T09:58:24;94616.22;;;28.20;33.94
77041;BME280;65974;42.664;23.264;2023-08-20T10:00:53;94631.16;;;28.19;34.28
77041;BME280;65974;42.664;23.264;2023-08-20T10:03:20;94628.69;;;28.21;34.54
77041;BME280;65974;42.664;23.264;2023-08-20T10:05:48;94633.69;;;28.28;35.80
77041;BME280;65974;42.664;23.264;2023-08-20T10:08:15;94632.69;;;28.26;35.28
77041;BME280;65974;42.664;23.264;2023-08-20T10:10:40;94626.19;;;28.23;35.50
77041;BME280;65974;42.664;23.264;2023-08-20T10:13:06;94624.16;;;28.18;35.07
77041;BME280;65974;42.664;23.264;2023-08-20T10:15:32;94633.88;;;28.19;35.78
77041;BME280;65974;42.664;23.264;2023-08-20T10:17:59;94622.22;;;28.24;34.26
77041;BME280;65974;42.664;23.264;2023-08-20T10:20:29;94631.69;;;28.23;34.67
77041;BME280;65974;42.664;23.264;2023-08-20T10:23:00;94624.25;;;28.29;34.48
77041;BME280;65974;42.664;23.264;2023-08-20T10:25:26;94642.13;;;28.25;34.94
77041;BME280;65974;42.664;23.264;2023-08-20T10:27:52;94620.03;;;28.34;34.76
77041;BME280;65974;42.664;23.264;2023-08-20T10:30:20;94626.06;;;28.43;32.93
77041;BME280;65974;42.664;23.264;2023-08-20T10:38:12;94615.47;;;28.57;34.21
77041;BME280;65974;42.664;23.264;2023-08-20T10:40:58;94617.50;;;28.62;33.80
77041;BME280;65974;42.664;23.264;2023-08-20T10:46:02;94616.75;;;28.61;33.60
77041;BME280;65974;42.664;23.264;2023-08-20T10:48:29;94606.75;;;28.58;33.94
77041;BME280;65974;42.664;23.264;2023-08-20T10:50:56;94606.94;;;28.49;33.47
77041;BME280;65974;42.664;23.264;2023-08-20T10:53:22;94606.44;;;28.51;33.64
77041;BME280;65974;42.664;23.264;2023-08-20T10:55:48;94596.72;;;28.50;32.75
77041;BME280;65974;42.664;23.264;2023-08-20T10:58:13;94598.72;;;28.49;34.23
77041;BME280;65974;42.664;23.264;2023-08-20T11:00:39;94603.81;;;28.62;34.55
77041;BME280;65974;42.664;23.264;2023-08-20T11:03:05;94596.38;;;28.73;33.58
77041;BME280;65974;42.664;23.264;2023-08-20T11:05:31;94589.94;;;28.76;34.67
77041;BME280;65974;42.664;23.264;2023-08-20T11:07:58;94586.94;;;28.80;33.64
77041;BME280;65974;42.664;23.264;2023-08-20T11:10:25;94595.94;;;28.86;31.88
77041;BME280;65974;42.664;23.264;2023-08-20T11:12:51;94585.97;;;28.88;33.29
77041;BME280;65974;42.664;23.264;2023-08-20T11:15:17;94590.53;;;29.02;31.62
77041;BME280;65974;42.664;23.264;2023-08-20T11:17:46;94591.53;;;29.05;31.75
77041;BME280;65974;42.664;23.264;2023-08-20T11:20:14;94585.31;;;29.10;31.71
77041;BME280;65974;42.664;23.264;2023-08-20T11:22:40;94585.56;;;29.12;32.79
77041;BME280;65974;42.664;23.264;2023-08-20T11:25:10;94582.84;;;29.12;32.64
77041;BME280;65974;42.664;23.264;2023-08-20T11:27:43;94584.09;;;29.11;31.61
77041;BME280;65974;42.664;23.264;2023-08-20T11:30:09;94579.34;;;29.11;31.81
77041;BME280;65974;42.664;23.264;2023-08-20T11:32:37;94577.34;;;29.12;30.98
77041;BME280;65974;42.664;23.264;2023-08-20T11:35:04;94582.31;;;29.08;31.62
77041;BME280;65974;42.664;23.264;2023-08-20T11:37:30;94578.34;;;29.09;32.41
77041;BME280;65974;42.664;23.264;2023-08-20T11:39:55;94578.63;;;29.17;31.90
77041;BME280;65974;42.664;23.264;2023-08-20T11:42:22;94570.91;;;29.26;32.44
77041;BME280;65974;42.664;23.264;2023-08-20T11:44:49;94567.69;;;29.33;31.87
77041;BME280;65974;42.664;23.264;2023-08-20T11:47:15;94567.72;;;29.39;32.95
77041;BME280;65974;42.664;23.264;2023-08-20T11:49:42;94568.75;;;29.47;31.83
77041;BME280;65974;42.664;23.264;2023-08-20T11:52:07;94570.50;;;29.55;31.77
77041;BME280;65974;42.664;23.264;2023-08-20T11:54:33;94564.75;;;29.59;32.32
77041;BME280;65974;42.664;23.264;2023-08-20T11:57:03;94567.00;;;29.60;31.54
77041;BME280;65974;42.664;23.264;2023-08-20T11:59:29;94569.00;;;29.65;31.55
77041;BME280;65974;42.664;23.264;2023-08-20T12:01:57;94565.03;;;29.66;31.27
77041;BME280;65974;42.664;23.264;2023-08-20T12:04:28;94572.50;;;29.71;31.71
77041;BME280;65974;42.664;23.264;2023-08-20T12:07:13;94557.03;;;29.68;31.67
77041;BME280;65974;42.664;23.264;2023-08-20T12:09:39;94561.31;;;29.80;31.64
77041;BME280;65974;42.664;23.264;2023-08-20T12:12:06;94561.03;;;29.67;32.15
77041;BME280;65974;42.664;23.264;2023-08-20T12:14:32;94550.03;;;29.67;31.33
77041;BME280;65974;42.664;23.264;2023-08-20T12:16:58;94549.03;;;29.65;31.87
77041;BME280;65974;42.664;23.264;2023-08-20T12:19:24;94546.31;;;29.70;32.07
77041;BME280;65974;42.664;23.264;2023-08-20T12:21:50;94549.06;;;29.70;31.26
77041;BME280;65974;42.664;23.264;2023-08-20T12:24:16;94549.78;;;29.71;31.95
77041;BME280;65974;42.664;23.264;2023-08-20T12:26:42;94544.84;;;29.75;31.90
77041;BME280;65974;42.664;23.264;2023-08-20T12:29:07;94549.31;;;29.78;31.59
77041;BME280;65974;42.664;23.264;2023-08-20T12:31:34;94539.09;;;29.84;32.27
77041;BME280;65974;42.664;23.264;2023-08-20T12:34:00;94547.09;;;29.87;32.15
77041;BME280;65974;42.664;23.264;2023-08-20T12:36:25;94541.34;;;29.91;33.29
77041;BME280;65974;42.664;23.264;2023-08-20T12:38:51;94536.06;;;29.99;32.07
77041;BME280;65974;42.664;23.264;2023-08-20T12:41:16;94531.81;;;30.03;32.47
77041;BME280;65974;42.664;23.264;2023-08-20T12:43:42;94534.84;;;30.11;32.69
77041;BME280;65974;42.664;23.264;2023-08-20T12:46:07;94535.56;;;30.17;32.51
77041;BME280;65974;42.664;23.264;2023-08-20T12:48:33;94523.06;;;30.21;32.64
77041;BME280;65974;42.664;23.264;2023-08-20T12:50:58;94531.09;;;30.30;31.90
77041;BME280;65974;42.664;23.264;2023-08-20T12:53:24;94536.56;;;30.36;32.23
77041;BME280;65974;42.664;23.264;2023-08-20T12:55:49;94532.06;;;30.38;32.04
77041;BME280;65974;42.664;23.264;2023-08-20T12:58:15;94528.31;;;30.36;32.26
77041;BME280;65974;42.664;23.264;2023-08-20T13:00:40;94524.81;;;30.41;32.12
77041;BME280;65974;42.664;23.264;2023-08-20T13:03:06;94526.28;;;30.47;32.00
77041;BME280;65974;42.664;23.264;2023-08-20T13:05:33;94531.78;;;30.53;31.57
77041;BME280;65974;42.664;23.264;2023-08-20T13:07:59;94535.75;;;30.52;32.15